Robertsport/Cape Mount Airport

Jump to: basic info | weather | comments

Related pages: nearby airports | nearby navaids | notams | map

Basic information (top)

Codes: GLCM
Location: lon 6.800000, lat -11.367000, elev 10 ft / 3 m msl
Status: small_airport

Weather (top)

Current conditions for Roberts International Airport 69nm (128km) ESE (rec'd 2015/04/21 09:30Z):

GLRB 210930Z 00000KT CAVOK 29/25 Q1012 NOSIG

Airport forecast for Roberts International Airport 69nm (128km) ESE (rec'd 2015/04/20 18:51Z):

TAF GLRB 201600Z 2018/2124 23007KT 9999 SCT020 
      BECMG 2020/2022 00000KT 9999 FEW015 
     FM210000 VRB03KT 9000 SCT013

Latest comments (top)

No comments yet for Robertsport/Cape Mount Airport

More... (top)

See also NOTAMs and nearby airports and navaids, or visit the Robertsport/Cape Mount Airport page at the main OurAirports website..